Terminal Aerodrome Forecast
Issued by NWS Albany, NY

Home | Current Version | Previous Version | Text Only | Print | Product List | Glossary On
Versions: 1 2 3 4 5 6 7 8 9 10 11 12 13 14 15 16 17 18 19 20 21 22 23 24 25 26 27 28 29 30
000
FTUS41 KALY 261700 AAB
TAFPOU
TAF AMD
KPOU 261702Z 2617/2712 36008KT P6SM VCSH OVC035
     FM261800 03007KT 5SM -SN BR SCT010 OVC025
     FM261900 03008KT 2SM -SN BR OVC009
     FM262300 02009G15KT 3/4SM -SN BR VV006=

USA.gov is the U.S. government's official web portal to all federal, state and local government web resources and services.